D/T METAR WX W/DIR W/SPE G/SPE TEMP DEWP
13/07/20 20:20 EGAE 131920Z 29010KT 9999 FEW020 BKN037 14/10 Q1019 WNW (290°) 11.5mph 14°C 10°C
13/07/20 19:20 EGAE 131820Z 29009KT 9999 VCSH FEW016 SCT025 BKN035 14/10 Q1019 VCSH WNW (290°) 10.4mph 14°C 10°C
13/07/20 18:50 EGAE 131750Z 30011KT 9999 FEW025 BKN037 15/11 Q1019 WNW (300°) 12.7mph 15°C 11°C
13/07/20 18:20 EGAE 131720Z 30011KT 9999 SCT027 BKN040 15/11 Q1019 WNW (300°) 12.7mph 15°C 11°C
13/07/20 17:50 EGAE 131650Z 29011KT 9999 SCT024 BKN037 15/11 Q1019 WNW (290°) 12.7mph 15°C 11°C
13/07/20 16:50 EGAE 131550Z 28010KT 9999 FEW015 SCT020 BKN042 16/12 Q1019 W (280°) 11.5mph 16°C 12°C
13/07/20 16:20 EGAE 131520Z 29015KT 9999 FEW015 BKN019 16/12 Q1019 WNW (290°) 17.3mph 16°C 12°C
13/07/20 15:50 EGAE 131450Z 29013KT 9999 SCT019 BKN035 16/12 Q1019 WNW (290°) 15.0mph 16°C 12°C
13/07/20 15:20 EGAE 131420Z 29015KT 9999 SCT020 BKN035 17/13 Q1019 WNW (290°) 17.3mph 17°C 13°C
13/07/20 14:50 EGAE 131350Z 28015KT 9999 FEW015 SCT022 BKN035 17/13 Q1019 W (280°) 17.3mph 17°C 13°C
13/07/20 13:50 EGAE 131250Z 28008KT 9999 VCSH SCT008 BKN020 17/13 Q1019 VCSH W (280°) 9.2mph 17°C 13°C
13/07/20 13:20 EGAE 131220Z 29011KT 9999 VCSH FEW014 BKN022 16/13 Q1019 VCSH WNW (290°) 12.7mph 16°C 13°C
13/07/20 12:50 EGAE 131150Z 26015KT 9999 VCSH FEW014 BKN023 17/13 Q1019 VCSH W (260°) 17.3mph 17°C 13°C
13/07/20 12:20 EGAE 131120Z 27017KT 9999 VCSH FEW014 BKN020 BKN043 17/13 Q1019 VCSH W (270°) 19.6mph 17°C 13°C
13/07/20 11:50 EGAE 131050Z 27014KT 9999 FEW014 BKN019 BKN047 16/14 Q1019 W (270°) 16.1mph 16°C 14°C
13/07/20 11:20 EGAE 131020Z 27016KT 9999 FEW014 SCT019 BKN040 16/14 Q1018 W (270°) 18.4mph 16°C 14°C
13/07/20 10:50 EGAE 130950Z 28016KT 9999 SCT008 BKN014 BKN045 16/14 Q1019 W (280°) 18.4mph 16°C 14°C
13/07/20 10:20 EGAE 130920Z 29012KT 9000 -RA SCT008 BKN012 16/14 Q1019 -RA WNW (290°) 13.8mph 16°C 14°C
13/07/20 09:50 EGAE 130850Z 25010KT 9000 -RA SCT008 BKN012 16/14 Q1019 -RA WSW (250°) 11.5mph 16°C 14°C
13/07/20 09:20 EGAE 130820Z 25011KT 9999 VCSH SCT008 BKN012 BKN022 15/14 Q1019 VCSH WSW (250°) 12.7mph 15°C 14°C
13/07/20 08:50 EGAE 130750Z 24010KT 9999 VCSH SCT008 BKN012 BKN022 15/13 Q1019 VCSH WSW (240°) 11.5mph 15°C 13°C
13/07/20 08:20 EGAE 130720Z 25010KT 9000 VCSH SCT007 OVC012 14/13 Q1019 VCSH WSW (250°) 11.5mph 14°C 13°C
13/07/20 07:20 EGAE 130620Z 25015KT 9999 VCSH SCT008 BKN018 BKN048 14/13 Q1018 VCSH WSW (250°) 17.3mph 14°C 13°C
13/07/20 06:50 EGAE 130550Z 27016KT 9999 VCSH FEW006 SCT012 BKN040 14/12 Q1018 VCSH W (270°) 18.4mph 14°C 12°C
13/07/20 06:20 EGAE 130520Z 27016KT 9999 6000E -RA BKN006 BKN018 14/13 Q1018 -RA W (270°) 18.4mph 14°C 13°C
12/07/20 20:20 EGAE 121920Z 21013KT 9999 FEW014 SCT025 17/14 Q1020 SSW (210°) 15.0mph 17°C 14°C
12/07/20 19:50 EGAE 121850Z 21013KT 9999 FEW014 SCT022 17/14 Q1020 SSW (210°) 15.0mph 17°C 14°C
12/07/20 19:20 EGAE 121820Z 21015KT 9999 VCSH SCT014 BKN048 17/14 Q1021 VCSH SSW (210°) 17.3mph 17°C 14°C
12/07/20 18:50 EGAE 121750Z 21015KT 9999 SCT015 BKN048 17/14 Q1021 SSW (210°) 17.3mph 17°C 14°C
12/07/20 18:20 EGAE 121720Z 22013KT 9999 -RA FEW014 SCT019 BKN044 17/15 Q1021 -RA SW (220°) 15.0mph 17°C 15°C
12/07/20 17:50 EGAE 121650Z 21012KT 9999 8000W -RA FEW015 BKN019 17/14 Q1022 -RA SSW (210°) 13.8mph 17°C 14°C
12/07/20 17:20 EGAE 121620Z 21016KT 9999 FEW019 BKN024 17/13 Q1022 SSW (210°) 18.4mph 17°C 13°C
12/07/20 16:50 EGAE 121550Z 22015KT 9999 FEW019 BKN025 18/13 Q1022 SW (220°) 17.3mph 18°C 13°C
12/07/20 16:20 EGAE 121520Z 21014KT 9999 FEW024 BKN030 17/12 Q1022 SSW (210°) 16.1mph 17°C 12°C
12/07/20 15:50 EGAE 121450Z 22013KT 9999 SCT024 BKN033 17/12 Q1023 SW (220°) 15.0mph 17°C 12°C
12/07/20 15:20 EGAE 121420Z 21012KT 9999 SCT023 BKN038 17/12 Q1023 SSW (210°) 13.8mph 17°C 12°C
12/07/20 14:50 EGAE 121350Z 22015KT 9999 VCSH FEW018 BKN027 17/12 Q1023 VCSH SW (220°) 17.3mph 17°C 12°C
12/07/20 14:20 EGAE 121320Z 21015KT 9999 VCSH FEW020 SCT030 BKN047 17/11 Q1023 VCSH SSW (210°) 17.3mph 17°C 11°C
12/07/20 13:50 EGAE 121250Z 22015KT 9999 FEW020 SCT030 17/11 Q1024 SW (220°) 17.3mph 17°C 11°C
12/07/20 13:20 EGAE 121220Z 22012KT 9999 FEW023 SCT048 17/11 Q1024 SW (220°) 13.8mph 17°C 11°C
12/07/20 12:50 EGAE 121150Z 21012KT 9999 -RA FEW020 17/10 Q1024 -RA SSW (210°) 13.8mph 17°C 10°C
12/07/20 12:20 EGAE 121120Z 21015KT 9999 FEW020 18/09 Q1024 SSW (210°) 17.3mph 18°C 9°C
12/07/20 11:20 EGAE 121020Z 19011KT 9999 FEW020 17/11 Q1024 S (190°) 12.7mph 17°C 11°C
12/07/20 10:50 EGAE 120950Z 22013KT 9999 FEW024 17/10 Q1024 SW (220°) 15.0mph 17°C 10°C
12/07/20 10:20 EGAE 120920Z 06006KT 9999 FEW018 15/12 Q1024 ENE (60°) 6.9mph 15°C 12°C
12/07/20 09:20 EGAE 120820Z 34002KT 9999 FEW018 14/11 Q1025 NNW (340°) 2.3mph 14°C 11°C
11/07/20 14:50 EGAE 111350Z 29010KT 9999 FEW030 BKN039 17/09 Q1027 WNW (290°) 11.5mph 17°C 9°C
11/07/20 14:20 EGAE 111320Z 27011KT 9999 FEW027 BKN033 15/09 Q1028 W (270°) 12.7mph 15°C 9°C
11/07/20 13:50 EGAE 111250Z 26009KT 9999 SCT030 BKN044 15/10 Q1028 W (260°) 10.4mph 15°C 10°C
11/07/20 13:20 EGAE 111220Z 27009KT 9999 SCT030 BKN041 15/09 Q1028 W (270°) 10.4mph 15°C 9°C
11/07/20 12:50 EGAE 111150Z 27011KT 9999 FEW028 BKN040 15/09 Q1027 W (270°) 12.7mph 15°C 9°C
11/07/20 12:20 EGAE 111120Z 26009KT 9999 FEW028 BKN042 15/09 Q1027 W (260°) 10.4mph 15°C 9°C
11/07/20 11:50 EGAE 111050Z 28010KT 9999 FEW025 BKN036 14/09 Q1027 W (280°) 11.5mph 14°C 9°C
11/07/20 11:20 EGAE 111020Z 25009KT 9999 FEW025 BKN039 14/08 Q1027 WSW (250°) 10.4mph 14°C 8°C
11/07/20 10:50 EGAE 110950Z 27009KT 9999 FEW022 BKN037 14/08 Q1027 W (270°) 10.4mph 14°C 8°C
11/07/20 10:20 EGAE 110920Z 29006KT 9999 VCSH FEW016 SCT024 BKN038 14/09 Q1027 VCSH WNW (290°) 6.9mph 14°C 9°C
11/07/20 09:20 EGAE 110820Z 27007KT 9999 VCSH FEW016 SCT026 BKN039 13/10 Q1027 VCSH W (270°) 8.1mph 13°C 10°C
11/07/20 08:50 EGAE 110750Z 27009KT 9999 VCSH FEW016 SCT026 BKN042 13/10 Q1026 VCSH W (270°) 10.4mph 13°C 10°C
11/07/20 08:20 EGAE 110720Z 26008KT 9999 FEW014 SCT026 BKN046 13/10 Q1026 W (260°) 9.2mph 13°C 10°C
11/07/20 07:50 EGAE 110650Z 25007KT 9999 FEW011 SCT026 BKN046 12/10 Q1026 WSW (250°) 8.1mph 12°C 10°C
11/07/20 07:20 EGAE 110620Z 25007KT 9999 VCSH FEW012 SCT026 BKN045 12/10 Q1026 VCSH WSW (250°) 8.1mph 12°C 10°C
11/07/20 06:50 EGAE 110550Z 26008KT 9999 VCSH FEW009 SCT026 BKN045 11/10 Q1026 VCSH W (260°) 9.2mph 11°C 10°C
11/07/20 06:20 EGAE 110520Z 26008KT 9999 VCSH FEW023 BKN045 11/10 Q1025 VCSH W (260°) 9.2mph 11°C 10°C
11/07/20 05:50 EGAE 110450Z 25008KT 9999 FEW020 BKN036 11/10 Q1025 WSW (250°) 9.2mph 11°C 10°C
10/07/20 20:20 EGAE 101920Z 30010KT 9999 FEW013 SCT022 13/10 Q1024 WNW (300°) 11.5mph 13°C 10°C
10/07/20 19:20 EGAE 101820Z 29007KT 9999 FEW015 SCT029 14/11 Q1023 WNW (290°) 8.1mph 14°C 11°C
10/07/20 18:50 EGAE 101750Z 30013KT 9999 -SHRA FEW016 SCT031 14/10 Q1023 -SHRA WNW (300°) 15.0mph 14°C 10°C
10/07/20 18:20 EGAE 101720Z 30012KT 9999 -SHRA FEW028 SCT046 15/10 Q1023 -SHRA WNW (300°) 13.8mph 15°C 10°C
10/07/20 17:50 EGAE 101650Z 30013KT 9999 FEW028 SCT043 16/09 Q1023 WNW (300°) 15.0mph 16°C 9°C
10/07/20 17:20 EGAE 101620Z 29013KT 9999 SCT028 SCT040 15/10 Q1022 WNW (290°) 15.0mph 15°C 10°C
10/07/20 16:50 EGAE 101550Z 30012KT 9999 SCT028 15/10 Q1022 WNW (300°) 13.8mph 15°C 10°C
10/07/20 16:20 EGAE 101520Z 30014KT 9999 FEW020 SCT032 15/09 Q1022 WNW (300°) 16.1mph 15°C 9°C
10/07/20 15:50 EGAE 101450Z 31013KT 9999 FEW020 SCT030 16/09 Q1022 NW (310°) 15.0mph 16°C 9°C
10/07/20 15:20 EGAE 101420Z 31013KT 9999 FEW020 SCT033 16/10 Q1022 NW (310°) 15.0mph 16°C 10°C
10/07/20 14:50 EGAE 101350Z 31014KT 9999 -SHRA FEW022 SCT031 BKN044 16/11 Q1022 -SHRA NW (310°) 16.1mph 16°C 11°C
10/07/20 14:20 EGAE 101320Z 30014KT 9999 -SHRA FEW020 SCT027 BKN045 16/10 Q1021 -SHRA WNW (300°) 16.1mph 16°C 10°C
10/07/20 13:50 EGAE 101250Z 28012KT 9999 FEW020 SCT028 BKN048 15/12 Q1021 W (280°) 13.8mph 15°C 12°C
10/07/20 12:50 EGAE 101150Z 29008KT 9999 -SHRA FEW020 BKN043 13/11 Q1021 -SHRA WNW (290°) 9.2mph 13°C 11°C
10/07/20 12:20 EGAE 101120Z 32017KT 9999 -SHRA FEW021 BKN042 13/10 Q1021 -SHRA NW (320°) 19.6mph 13°C 10°C
10/07/20 11:50 EGAE 101050Z 30010KT 9999 -SHRA FEW021 BKN042 15/11 Q1021 -SHRA WNW (300°) 11.5mph 15°C 11°C
10/07/20 11:20 EGAE 101020Z 31015KT 9999 -SHRA FEW021 BKN042 16/12 Q1020 -SHRA NW (310°) 17.3mph 16°C 12°C
10/07/20 10:50 EGAE 100950Z 31013KT 9999 FEW021 BKN042 15/11 Q1020 NW (310°) 15.0mph 15°C 11°C
10/07/20 10:20 EGAE 100920Z 31012KT 9999 VCSH SCT021 SCT044 13/10 Q1020 VCSH NW (310°) 13.8mph 13°C 10°C
10/07/20 09:20 EGAE 100820Z 30009KT 9999 VCSH SCT021 BKN044 13/11 Q1020 VCSH WNW (300°) 10.4mph 13°C 11°C
10/07/20 08:50 EGAE 100750Z 33010KT 9999 -SHRA FEW021 SCT035 12/11 Q1020 -SHRA NNW (330°) 11.5mph 12°C 11°C
10/07/20 08:20 EGAE 100720Z 30013KT 9999 -SHRA FEW021 SCT040 13/11 Q1019 -SHRA WNW (300°) 15.0mph 13°C 11°C
10/07/20 07:50 EGAE 100650Z 29008KT 9999 VCSH FEW015 SCT028 12/10 Q1019 VCSH WNW (290°) 9.2mph 12°C 10°C
10/07/20 06:50 EGAE 100550Z 27005KT 9999 VCSH FEW015 SCT028 10/09 Q1019 VCSH W (270°) 5.8mph 10°C 9°C
10/07/20 06:20 EGAE 100520Z 30006KT 9999 VCSH FEW015 SCT028 11/09 Q1019 VCSH WNW (300°) 6.9mph 11°C 9°C
9/07/20 20:20 EGAE 091920Z 31011KT 9999 VCSH FEW022 SCT042 13/08 Q1017 VCSH NW (310°) 12.7mph 13°C 8°C
9/07/20 19:50 EGAE 091850Z 33009KT 9999 FEW028 SCT046 14/07 Q1017 NNW (330°) 10.4mph 14°C 7°C
9/07/20 19:20 EGAE 091820Z 32011KT 9999 FEW025 SCT046 14/07 Q1017 NW (320°) 12.7mph 14°C 7°C
9/07/20 18:50 EGAE 091750Z 34013KT 9999 FEW022 SCT042 14/09 Q1017 NNW (340°) 15.0mph 14°C 9°C
9/07/20 18:20 EGAE 091720Z 34013KT 9999 FEW022 SCT033 14/08 Q1017 NNW (340°) 15.0mph 14°C 8°C
9/07/20 17:50 EGAE 091650Z 34009KT 9999 FEW020 SCT035 15/08 Q1017 NNW (340°) 10.4mph 15°C 8°C
9/07/20 17:20 EGAE 091620Z 35012KT 9999 FEW017 SCT033 15/09 Q1017 N (350°) 13.8mph 15°C 9°C